createdAt,value
2018-09-17T00:00:36.071Z,1007.59
2018-09-17T00:01:36.074Z,1007.58
2018-09-17T00:02:36.039Z,1007.58
2018-09-17T00:03:36.026Z,1007.59
2018-09-17T00:04:36.016Z,1007.52
2018-09-17T00:05:36.005Z,1007.49
2018-09-17T00:06:36.018Z,1007.52
2018-09-17T00:07:35.977Z,1007.49
2018-09-17T00:08:35.974Z,1007.45
2018-09-17T00:09:35.954Z,1007.48
2018-09-17T00:10:35.951Z,1007.45
2018-09-17T00:11:35.959Z,1007.50
2018-09-17T00:12:35.922Z,1007.52
2018-09-17T00:13:35.908Z,1007.49
2018-09-17T00:14:35.908Z,1007.54
2018-09-17T00:15:35.894Z,1007.53
2018-09-17T00:16:35.895Z,1007.53
2018-09-17T00:17:35.865Z,1007.56
2018-09-17T00:18:35.856Z,1007.52
2018-09-17T00:19:35.843Z,1007.51
2018-09-17T00:20:35.835Z,1007.52
2018-09-17T00:21:35.842Z,1007.52
2018-09-17T00:22:35.806Z,1007.58
2018-09-17T00:23:35.795Z,1007.56
2018-09-17T00:24:35.786Z,1007.62
2018-09-17T00:25:35.770Z,1007.62
2018-09-17T00:26:35.784Z,1007.59
2018-09-17T00:27:35.752Z,1007.54
2018-09-17T00:28:35.739Z,1007.56
2018-09-17T00:29:35.724Z,1007.49
2018-09-17T00:30:35.716Z,1007.46
2018-09-17T00:31:35.726Z,1007.37
2018-09-17T00:32:35.690Z,1007.39
2018-09-17T00:33:35.680Z,1007.37
2018-09-17T00:34:35.666Z,1007.34
2018-09-17T00:35:35.656Z,1007.34
2018-09-17T00:36:35.665Z,1007.36
2018-09-17T00:37:35.637Z,1007.32
2018-09-17T00:38:35.618Z,1007.35
2018-09-17T00:39:35.611Z,1007.45
2018-09-17T00:40:35.597Z,1007.48
2018-09-17T00:41:35.604Z,1007.51
2018-09-17T00:42:35.582Z,1007.52
2018-09-17T00:43:35.559Z,1007.46
2018-09-17T00:44:35.557Z,1007.46
2018-09-17T00:45:35.542Z,1007.35
2018-09-17T00:46:35.548Z,1007.40
2018-09-17T00:47:35.522Z,1007.40
2018-09-17T00:48:35.503Z,1007.39
2018-09-17T00:49:35.494Z,1007.44
2018-09-17T00:50:35.483Z,1007.47
2018-09-17T00:51:35.494Z,1007.41
2018-09-17T00:52:35.457Z,1007.40
2018-09-17T00:53:35.442Z,1007.45
2018-09-17T00:54:35.438Z,1007.49
2018-09-17T00:55:35.427Z,1007.48
2018-09-17T00:56:35.427Z,1007.51
2018-09-17T00:57:35.398Z,1007.48
2018-09-17T00:58:35.389Z,1007.52
2018-09-17T00:59:35.380Z,1007.54
2018-09-17T01:00:35.362Z,1007.56
2018-09-17T01:01:35.371Z,1007.49
2018-09-17T01:02:35.340Z,1007.54
2018-09-17T01:03:35.330Z,1007.54
2018-09-17T01:04:35.311Z,1007.54
2018-09-17T01:05:35.298Z,1007.56
2018-09-17T01:06:35.320Z,1007.55
2018-09-17T01:07:35.278Z,1007.54
2018-09-17T01:08:35.272Z,1007.56
2018-09-17T01:09:35.259Z,1007.51
2018-09-17T01:10:35.245Z,1007.54
2018-09-17T01:11:35.247Z,1007.55
2018-09-17T01:12:35.224Z,1007.52
2018-09-17T01:13:35.205Z,1007.54
2018-09-17T01:14:35.200Z,1007.49
2018-09-17T01:15:35.180Z,1007.50
2018-09-17T01:16:35.197Z,1007.49
2018-09-17T01:17:35.156Z,1007.50
2018-09-17T01:18:35.154Z,1007.48
2018-09-17T01:19:35.134Z,1007.51
2018-09-17T01:20:35.125Z,1007.47
2018-09-17T01:21:35.133Z,1007.52
2018-09-17T01:22:35.103Z,1007.51
2018-09-17T01:23:35.090Z,1007.49
2018-09-17T01:24:35.084Z,1007.50
2018-09-17T01:25:35.067Z,1007.48
2018-09-17T01:26:35.072Z,1007.51
2018-09-17T01:27:35.039Z,1007.48
2018-09-17T01:28:35.029Z,1007.52
2018-09-17T01:29:35.016Z,1007.55
2018-09-17T01:30:35.026Z,1007.54
2018-09-17T01:31:35.027Z,1007.47
2018-09-17T01:32:34.979Z,1007.49
2018-09-17T01:33:34.973Z,1007.47
2018-09-17T01:34:34.953Z,1007.45
2018-09-17T01:35:34.939Z,1007.56
2018-09-17T01:36:34.960Z,1007.45
2018-09-17T01:37:34.916Z,1007.56
2018-09-17T01:38:34.913Z,1007.58
2018-09-17T01:39:34.893Z,1007.61
2018-09-17T01:40:34.879Z,1007.60
2018-09-17T01:41:34.897Z,1007.58
2018-09-17T01:42:34.853Z,1007.56
2018-09-17T01:43:34.849Z,1007.59
2018-09-17T01:44:34.833Z,1007.55
2018-09-17T01:45:34.819Z,1007.51
2018-09-17T01:46:34.838Z,1007.53
2018-09-17T01:47:34.794Z,1007.57
2018-09-17T01:48:34.790Z,1007.60
2018-09-17T01:49:34.768Z,1007.53
2018-09-17T01:50:34.766Z,1007.48
2018-09-17T01:51:34.776Z,1007.47
2018-09-17T01:52:34.734Z,1007.46
2018-09-17T01:53:34.723Z,1007.42
2018-09-17T01:54:34.714Z,1007.40
2018-09-17T01:55:34.707Z,1007.39
2018-09-17T01:56:34.707Z,1007.38
2018-09-17T01:57:34.683Z,1007.40
2018-09-17T01:58:34.663Z,1007.42
2018-09-17T01:59:34.654Z,1007.37
2018-09-17T02:00:34.648Z,1007.41
2018-09-17T02:01:34.656Z,1007.37
2018-09-17T02:02:34.623Z,1007.39
2018-09-17T02:03:34.608Z,1007.37
2018-09-17T02:04:34.595Z,1007.44
2018-09-17T02:05:34.588Z,1007.48
2018-09-17T02:06:34.606Z,1007.47
2018-09-17T02:07:34.560Z,1007.47
2018-09-17T02:08:34.590Z,1007.46
2018-09-17T02:09:34.598Z,1007.45
2018-09-17T02:10:34.527Z,1007.43
2018-09-17T02:11:34.517Z,1007.40
2018-09-17T02:12:34.527Z,1007.41
2018-09-17T02:13:34.486Z,1007.34
2018-09-17T02:14:34.485Z,1007.32
2018-09-17T02:15:34.466Z,1007.29
2018-09-17T02:16:34.458Z,1007.23
2018-09-17T02:17:34.442Z,1007.25
2018-09-17T02:18:34.450Z,1007.32
2018-09-17T02:19:34.426Z,1007.32
2018-09-17T02:20:34.405Z,1007.31
2018-09-17T02:21:34.397Z,1007.27
2018-09-17T02:22:34.388Z,1007.28
2018-09-17T02:23:34.394Z,1007.23
2018-09-17T02:24:34.367Z,1007.23
2018-09-17T02:25:34.354Z,1007.17
2018-09-17T02:26:34.338Z,1007.18
2018-09-17T02:27:34.336Z,1007.16
2018-09-17T02:28:34.338Z,1007.18
2018-09-17T02:29:34.309Z,1007.14
2018-09-17T02:30:34.301Z,1007.08
2018-09-17T02:31:34.281Z,1007.10
2018-09-17T02:32:34.273Z,1007.14
2018-09-17T02:33:34.259Z,1007.12
2018-09-17T02:34:34.272Z,1007.15
2018-09-17T02:35:34.235Z,1007.13
2018-09-17T02:36:34.218Z,1007.16
2018-09-17T02:37:34.213Z,1007.16
2018-09-17T02:38:34.198Z,1007.20
2018-09-17T02:39:34.196Z,1007.21
2018-09-17T02:40:34.202Z,1007.18
2018-09-17T02:41:34.166Z,1007.13
2018-09-17T02:42:34.148Z,1007.14
2018-09-17T02:43:34.136Z,1007.12
2018-09-17T02:44:34.131Z,1007.14
2018-09-17T02:45:34.110Z,1007.11
2018-09-17T02:46:34.138Z,1007.10
2018-09-17T02:47:34.093Z,1007.19
2018-09-17T02:48:34.081Z,1007.14
2018-09-17T02:49:34.068Z,1007.15
2018-09-17T02:50:34.059Z,1007.17
2018-09-17T02:51:34.043Z,1007.15
2018-09-17T02:52:34.056Z,1007.19
2018-09-17T02:53:34.083Z,1007.16
2018-09-17T02:54:34.011Z,1007.21
2018-09-17T02:55:33.993Z,1007.21
2018-09-17T02:56:33.989Z,1007.23
2018-09-17T05:53:49.160Z,1007.87
2018-09-17T05:54:49.083Z,1007.87
2018-09-17T05:55:49.062Z,1007.82
2018-09-17T05:56:49.054Z,1007.82
2018-09-17T05:57:49.048Z,1007.87
2018-09-17T05:58:49.030Z,1007.91
2018-09-17T05:59:49.046Z,1007.93
2018-09-17T06:00:49.004Z,1007.97
2018-09-17T06:01:49.003Z,1007.92
2018-09-17T06:02:48.983Z,1008.01
2018-09-17T06:03:48.980Z,1008.00
2018-09-17T06:04:48.983Z,1007.97
2018-09-17T06:05:48.957Z,1007.93
2018-09-17T06:06:48.984Z,1008.00
2018-09-17T06:07:48.929Z,1007.95
2018-09-17T06:08:48.914Z,1007.95
2018-09-17T06:09:49.013Z,1007.89
2018-09-17T06:10:48.897Z,1007.95
2018-09-17T06:11:48.955Z,1007.98
2018-09-17T06:12:48.876Z,1008.02
2018-09-17T06:13:48.861Z,1007.99
2018-09-17T06:14:48.845Z,1008.03
2018-09-17T06:15:48.870Z,1008.00
2018-09-17T06:16:48.825Z,1008.07
2018-09-17T06:17:48.819Z,1008.06
2018-09-17T06:18:48.816Z,1008.13
2018-09-17T06:19:48.790Z,1008.12
2018-09-17T06:20:48.798Z,1008.11
2018-09-17T06:21:48.775Z,1008.15
2018-09-17T06:22:48.755Z,1008.10
2018-09-17T06:23:48.745Z,1008.04
2018-09-17T06:24:48.733Z,1008.05
2018-09-17T06:25:48.748Z,1008.08
2018-09-17T06:26:48.711Z,1008.08
2018-09-17T06:27:48.702Z,1008.07
2018-09-17T06:28:48.775Z,1008.07
2018-09-17T06:29:48.674Z,1008.10
2018-09-17T06:30:48.664Z,1008.10
2018-09-17T06:31:48.677Z,1008.12
2018-09-17T06:32:48.636Z,1008.10
2018-09-17T06:33:48.634Z,1008.10
2018-09-17T06:34:48.620Z,1008.08
2018-09-17T06:35:48.604Z,1008.10
2018-09-17T06:36:48.622Z,1008.11
2018-09-17T06:37:48.586Z,1008.21
2018-09-17T06:38:48.576Z,1008.23
2018-09-17T06:39:48.554Z,1008.20
2018-09-17T06:40:48.543Z,1008.23
2018-09-17T06:41:48.540Z,1008.19
2018-09-17T06:42:48.560Z,1008.24
2018-09-17T06:43:48.511Z,1008.35
2018-09-17T06:44:48.504Z,1008.20
2018-09-17T06:45:48.496Z,1008.28
2018-09-17T06:46:48.480Z,1008.35
2018-09-17T06:47:48.496Z,1008.32
2018-09-17T06:48:48.455Z,1008.39
2018-09-17T06:49:48.445Z,1008.38
2018-09-17T06:50:48.436Z,1008.44
2018-09-17T06:51:48.418Z,1008.42
2018-09-17T06:52:48.406Z,1008.41
2018-09-17T06:53:48.448Z,1008.37
2018-09-17T06:54:48.384Z,1008.41
2018-09-17T06:55:48.384Z,1008.36
2018-09-17T06:56:48.360Z,1008.45
2018-09-17T06:57:48.353Z,1008.34
2018-09-17T06:58:48.342Z,1008.37
2018-09-17T06:59:48.351Z,1008.42
2018-09-17T07:00:48.313Z,1008.41
2018-09-17T07:01:48.309Z,1008.42
2018-09-17T07:02:48.291Z,1008.39
2018-09-17T07:03:48.283Z,1008.39
2018-09-17T07:04:48.289Z,1008.40
2018-09-17T07:05:48.266Z,1008.32
2018-09-17T07:06:48.242Z,1008.31
2018-09-17T07:07:48.240Z,1008.32
2018-09-17T07:08:48.222Z,1008.30
2018-09-17T07:09:48.235Z,1008.25
2018-09-17T07:10:48.204Z,1008.31
2018-09-17T07:11:48.185Z,1008.30
2018-09-17T07:12:48.178Z,1008.34
2018-09-17T07:13:48.170Z,1008.23
2018-09-17T07:14:48.177Z,1008.28
2018-09-17T07:15:48.149Z,1008.28
2018-09-17T07:16:48.126Z,1008.28
2018-09-17T07:17:48.125Z,1008.24
2018-09-17T07:18:48.110Z,1008.29
2018-09-17T07:19:48.095Z,1008.31
2018-09-17T07:20:48.118Z,1008.25
2018-09-17T07:21:48.071Z,1008.30
2018-09-17T07:22:48.063Z,1008.32
2018-09-17T07:23:48.054Z,1008.37
2018-09-17T07:24:48.066Z,1008.33
2018-09-17T07:25:48.033Z,1008.36
2018-09-17T07:26:48.020Z,1008.38
2018-09-17T07:27:48.004Z,1008.33
2018-09-17T07:28:47.993Z,1008.28
2018-09-17T07:29:47.983Z,1008.28
2018-09-17T07:30:47.991Z,1008.26
2018-09-17T07:31:47.960Z,1008.24
2018-09-17T07:32:47.945Z,1008.29
2018-09-17T07:33:47.936Z,1008.26
2018-09-17T07:34:47.932Z,1008.26
2018-09-17T07:35:47.939Z,1008.21
2018-09-17T07:36:47.903Z,1008.23
2018-09-17T07:37:47.887Z,1008.25
2018-09-17T07:38:47.875Z,1008.21
2018-09-17T07:39:47.872Z,1008.18
2018-09-17T07:40:47.881Z,1008.11
2018-09-17T07:41:47.871Z,1008.12
2018-09-17T07:42:47.839Z,1008.23
2018-09-17T07:43:47.821Z,1008.17
2018-09-17T07:44:47.814Z,1008.16
2018-09-17T07:45:47.805Z,1008.18
2018-09-17T07:46:47.791Z,1008.21
2018-09-17T07:47:47.832Z,1008.27
2018-09-17T07:48:47.767Z,1008.27
2018-09-17T07:49:47.760Z,1008.27
2018-09-17T07:50:47.746Z,1008.31
2018-09-17T07:51:47.729Z,1008.33
2018-09-17T07:52:47.758Z,1008.27
2018-09-17T07:53:47.714Z,1008.33
2018-09-17T07:54:47.701Z,1008.33
2018-09-17T07:55:47.679Z,1008.30
2018-09-17T07:56:47.672Z,1008.28
2018-09-17T07:57:47.660Z,1008.31
2018-09-17T07:58:47.727Z,1008.32
2018-09-17T07:59:47.636Z,1008.25
2018-09-17T08:00:47.631Z,1008.30
2018-09-17T08:01:47.612Z,1008.24
2018-09-17T08:02:47.607Z,1008.29
2018-09-17T08:03:47.589Z,1008.29
2018-09-17T08:04:47.599Z,1008.33
2018-09-17T08:05:47.648Z,1008.32
2018-09-17T08:06:47.558Z,1008.28
2018-09-17T08:07:47.553Z,1008.34
2018-09-17T08:08:47.531Z,1008.34
2018-09-17T08:09:47.557Z,1008.30
2018-09-17T08:10:47.509Z,1008.34
2018-09-17T08:11:47.507Z,1008.36
2018-09-17T08:12:47.491Z,1008.33
2018-09-17T08:13:47.482Z,1008.40
2018-09-17T08:14:47.473Z,1008.45
2018-09-17T08:15:47.475Z,1008.44
2018-09-17T08:16:47.446Z,1008.43
2018-09-17T08:17:47.434Z,1008.44
2018-09-17T08:18:47.418Z,1008.44
2018-09-17T08:19:47.471Z,1008.45
2018-09-17T08:20:47.427Z,1008.46
2018-09-17T08:21:47.394Z,1008.44
2018-09-17T08:22:47.380Z,1008.47
2018-09-17T08:23:47.372Z,1008.45
2018-09-17T08:24:47.365Z,1008.41
2018-09-17T08:25:47.340Z,1008.39
2018-09-17T08:26:47.364Z,1008.32
2018-09-17T08:27:47.325Z,1008.36
2018-09-17T08:28:47.314Z,1008.34
2018-09-17T08:29:47.302Z,1008.34
2018-09-17T08:30:47.284Z,1008.27
2018-09-17T08:31:47.283Z,1008.30
2018-09-17T08:32:47.304Z,1008.26
2018-09-17T08:33:47.257Z,1008.28
2018-09-17T08:34:47.250Z,1008.24
2018-09-17T08:35:47.230Z,1008.23
2018-09-17T08:36:47.225Z,1008.29
2018-09-17T08:37:47.213Z,1008.24
2018-09-17T08:38:47.226Z,1008.22
2018-09-17T08:39:47.187Z,1008.19
2018-09-17T08:40:47.181Z,1008.15
2018-09-17T08:41:47.168Z,1008.18
2018-09-17T08:42:47.154Z,1008.15
2018-09-17T08:43:47.179Z,1008.16
2018-09-17T08:44:47.132Z,1008.11
2018-09-17T08:45:47.131Z,1008.10
2018-09-17T08:46:47.129Z,1008.11
2018-09-17T08:47:47.107Z,1008.11
2018-09-17T08:48:47.115Z,1008.17
2018-09-17T08:49:47.107Z,1008.15
2018-09-17T08:50:47.075Z,1008.19
2018-09-17T08:51:47.057Z,1008.13
2018-09-17T08:52:47.116Z,1008.13
2018-09-17T08:53:47.033Z,1008.18
2018-09-17T08:54:47.026Z,1008.18
2018-09-17T08:55:47.041Z,1008.23
2018-09-17T08:56:47.000Z,1008.22
2018-09-17T08:57:46.998Z,1008.28
2018-09-17T08:58:46.984Z,1008.28
2018-09-17T08:59:46.967Z,1008.30
2018-09-17T09:00:46.981Z,1008.26
2018-09-17T09:01:46.952Z,1008.27
2018-09-17T09:02:46.937Z,1008.22
2018-09-17T09:03:46.924Z,1008.24
2018-09-17T09:04:46.915Z,1008.24
2018-09-17T09:05:46.925Z,1008.25
2018-09-17T09:06:46.893Z,1008.25
2018-09-17T09:07:46.889Z,1008.24
2018-09-17T09:08:46.878Z,1008.22
2018-09-17T09:09:46.861Z,1008.21
2018-09-17T09:10:46.895Z,1008.15
2018-09-17T09:11:46.843Z,1008.11
2018-09-17T09:12:46.826Z,1008.13
2018-09-17T09:13:46.818Z,1008.14
2018-09-17T09:14:46.814Z,1008.11
2018-09-17T09:15:46.845Z,1008.14
2018-09-17T09:16:46.802Z,1008.20
2018-09-17T09:17:46.782Z,1008.23
2018-09-17T09:18:46.767Z,1008.23
2018-09-17T09:19:46.757Z,1008.19
2018-09-17T09:20:46.745Z,1008.18
2018-09-17T09:21:46.760Z,1008.20
2018-09-17T09:22:46.718Z,1008.20
2018-09-17T09:23:46.709Z,1008.19
2018-09-17T09:24:46.699Z,1008.17
2018-09-17T09:25:46.693Z,1008.21
2018-09-17T09:26:46.675Z,1008.21
2018-09-17T09:27:46.696Z,1008.14
2018-09-17T09:28:46.651Z,1008.20
2018-09-17T09:29:46.648Z,1008.17
2018-09-17T09:30:46.633Z,1008.20
2018-09-17T09:31:46.628Z,1008.17
2018-09-17T09:32:46.619Z,1008.19
2018-09-17T09:33:46.619Z,1008.15
2018-09-17T09:34:46.592Z,1008.15
2018-09-17T09:35:46.584Z,1008.17
2018-09-17T09:36:46.567Z,1008.15
2018-09-17T09:37:46.558Z,1008.13
2018-09-17T09:38:46.579Z,1008.12
2018-09-17T09:39:46.537Z,1008.10
2018-09-17T09:40:46.527Z,1008.08
2018-09-17T09:41:46.523Z,1008.12
2018-09-17T09:42:46.502Z,1008.15
2018-09-17T09:43:46.504Z,1008.14
2018-09-17T09:44:46.509Z,1008.11
2018-09-17T09:45:46.478Z,1008.09
2018-09-17T09:46:46.473Z,1008.11
2018-09-17T09:47:46.455Z,1008.10
2018-09-17T09:48:46.474Z,1008.10
2018-09-17T09:49:46.431Z,1008.09
2018-09-17T09:50:46.426Z,1008.08
2018-09-17T09:51:46.417Z,1008.06
2018-09-17T09:52:46.415Z,1008.00
2018-09-17T09:53:46.391Z,1008.01
2018-09-17T09:54:46.409Z,1007.94
2018-09-17T09:55:46.364Z,1008.00
2018-09-17T09:56:46.382Z,1007.98
2018-09-17T09:57:46.344Z,1007.92
2018-09-17T09:58:46.335Z,1007.90
2018-09-17T09:59:46.357Z,1007.95
2018-09-17T10:00:46.313Z,1007.92
2018-09-17T10:01:46.309Z,1007.92
2018-09-17T10:02:46.307Z,1007.91
2018-09-17T10:03:46.285Z,1007.93
2018-09-17T10:04:46.280Z,1007.89
2018-09-17T10:05:46.287Z,1007.90
2018-09-17T10:06:46.256Z,1007.88
2018-09-17T10:07:46.242Z,1007.94
2018-09-17T10:08:46.233Z,1007.89
2018-09-17T10:09:46.225Z,1007.89
2018-09-17T10:10:46.210Z,1007.85
2018-09-17T10:11:46.226Z,1007.82
2018-09-17T10:12:46.189Z,1007.79
2018-09-17T10:13:46.175Z,1007.80
2018-09-17T10:14:46.160Z,1007.79
2018-09-17T10:15:46.162Z,1007.80
2018-09-17T10:16:46.143Z,1007.80
2018-09-17T10:17:46.159Z,1007.83
2018-09-17T10:18:46.128Z,1007.78
2018-09-17T10:19:46.108Z,1007.79
2018-09-17T10:20:46.102Z,1007.79
2018-09-17T10:21:46.096Z,1007.73
2018-09-17T10:22:46.122Z,1007.74
2018-09-17T10:23:46.075Z,1007.71
2018-09-17T10:24:46.064Z,1007.75
2018-09-17T10:25:46.046Z,1007.73
2018-09-17T10:26:46.041Z,1007.74
2018-09-17T10:27:46.031Z,1007.77
2018-09-17T10:28:46.042Z,1007.70
2018-09-17T10:29:46.050Z,1007.76
2018-09-17T10:30:45.998Z,1007.73
2018-09-17T10:31:45.991Z,1007.75
2018-09-17T10:32:45.975Z,1007.75
2018-09-17T10:33:46.004Z,1007.72
2018-09-17T10:34:45.958Z,1007.72
2018-09-17T10:35:45.952Z,1007.67
2018-09-17T10:36:45.942Z,1007.66
2018-09-17T10:37:45.928Z,1007.68
2018-09-17T10:38:45.921Z,1007.71
2018-09-17T10:39:45.938Z,1007.66
2018-09-17T10:40:45.898Z,1007.68
2018-09-17T10:41:45.890Z,1007.59
2018-09-17T10:42:45.874Z,1007.67
2018-09-17T10:43:45.872Z,1007.65
2018-09-17T10:44:45.863Z,1007.60
2018-09-17T10:45:45.874Z,1007.61
2018-09-17T10:46:45.834Z,1007.62
2018-09-17T10:47:45.832Z,1007.62
2018-09-17T10:48:45.821Z,1007.60
2018-09-17T10:49:45.809Z,1007.57
2018-09-17T10:50:45.827Z,1007.58
2018-09-17T10:51:45.788Z,1007.59
2018-09-17T10:52:45.784Z,1007.57
2018-09-17T10:53:45.773Z,1007.57
2018-09-17T10:54:45.758Z,1007.55
2018-09-17T10:55:45.758Z,1007.55
2018-09-17T10:56:45.764Z,1007.57
2018-09-17T10:57:45.723Z,1007.57
2018-09-17T10:58:45.715Z,1007.56
2018-09-17T10:59:45.710Z,1007.56
2018-09-17T11:00:45.696Z,1007.55
2018-09-17T11:01:45.689Z,1007.53
2018-09-17T11:02:45.709Z,1007.53
2018-09-17T11:03:45.663Z,1007.55
2018-09-17T11:04:45.660Z,1007.52
2018-09-17T11:05:45.649Z,1007.52
2018-09-17T11:06:45.638Z,1007.49
2018-09-17T11:07:45.662Z,1007.51
2018-09-17T11:08:45.636Z,1007.56
2018-09-17T11:09:45.608Z,1007.54
2018-09-17T11:10:45.597Z,1007.51
2018-09-17T11:11:45.588Z,1007.51
2018-09-17T11:12:45.577Z,1007.44
2018-09-17T11:13:45.600Z,1007.45
2018-09-17T11:14:45.557Z,1007.37
2018-09-17T11:15:45.542Z,1007.37
2018-09-17T11:16:45.537Z,1007.34
2018-09-17T11:17:45.623Z,1007.40
2018-09-17T11:18:45.521Z,1007.36
2018-09-17T11:19:45.528Z,1007.42
2018-09-17T11:20:45.503Z,1007.36
2018-09-17T11:21:45.477Z,1007.35
2018-09-17T11:22:45.472Z,1007.31
2018-09-17T11:23:45.484Z,1007.30
2018-09-17T11:24:45.481Z,1007.30
2018-09-17T11:25:45.442Z,1007.28
2018-09-17T11:26:45.434Z,1007.23
2018-09-17T11:27:45.429Z,1007.24
2018-09-17T11:28:45.417Z,1007.34
2018-09-17T11:29:45.399Z,1007.28
2018-09-17T11:30:45.431Z,1007.26
2018-09-17T11:31:45.378Z,1007.26
2018-09-17T11:32:45.375Z,1007.29
2018-09-17T11:33:45.373Z,1007.28
2018-09-17T11:34:45.358Z,1007.26
2018-09-17T11:35:45.340Z,1007.25
2018-09-17T11:36:45.355Z,1007.24
2018-09-17T11:37:45.329Z,1007.15
2018-09-17T11:38:45.317Z,1007.21
2018-09-17T11:39:45.304Z,1007.19
2018-09-17T11:40:45.327Z,1007.18
2018-09-17T11:41:45.316Z,1007.09
2018-09-17T11:42:45.279Z,1007.11
2018-09-17T11:43:45.259Z,1007.05
2018-09-17T11:44:45.256Z,1007.10
2018-09-17T11:45:45.242Z,1007.12
2018-09-17T11:46:45.242Z,1007.09
2018-09-17T11:47:45.256Z,1007.10
2018-09-17T11:48:45.210Z,1007.04
2018-09-17T11:49:45.214Z,1007.06
2018-09-17T11:50:45.191Z,1007.06
2018-09-17T11:51:45.189Z,1007.08
2018-09-17T11:52:45.181Z,1007.08
2018-09-17T11:53:45.206Z,1007.05
2018-09-17T11:54:45.157Z,1007.00
2018-09-17T11:55:45.146Z,1007.01
2018-09-17T11:56:45.135Z,1007.00
2018-09-17T11:57:45.129Z,1007.04
2018-09-17T11:58:45.151Z,1007.06
2018-09-17T11:59:45.104Z,1007.00
2018-09-17T12:00:45.152Z,1007.01
2018-09-17T12:01:45.100Z,1006.96
2018-09-17T12:02:45.301Z,1006.94
2018-09-17T12:03:45.983Z,1006.96
2018-09-17T12:04:46.982Z,1006.94
2018-09-17T12:05:45.077Z,1007.05
2018-09-17T12:06:45.041Z,1007.01
2018-09-17T12:07:45.030Z,1006.95
2018-09-17T12:08:45.020Z,1006.97
2018-09-17T12:09:45.007Z,1006.95
2018-09-17T12:10:45.020Z,1006.95
2018-09-17T12:11:44.999Z,1006.96
2018-09-17T12:12:44.978Z,1006.87
2018-09-17T12:13:44.966Z,1006.91
2018-09-17T12:14:44.960Z,1006.83
2018-09-17T12:15:44.964Z,1006.87
2018-09-17T12:16:44.929Z,1006.87
2018-09-17T12:17:44.925Z,1006.85
2018-09-17T12:18:44.911Z,1006.83
2018-09-17T12:19:44.906Z,1006.89
2018-09-17T12:20:44.923Z,1006.85
2018-09-17T12:21:44.892Z,1006.80
2018-09-17T12:22:44.902Z,1006.79
2018-09-17T12:23:44.865Z,1006.80
2018-09-17T12:24:44.928Z,1006.86
2018-09-17T12:25:44.870Z,1006.81
2018-09-17T12:26:44.874Z,1006.80
2018-09-17T12:27:44.830Z,1006.80
2018-09-17T12:28:44.816Z,1006.80
2018-09-17T12:29:44.839Z,1006.83
2018-09-17T12:30:44.828Z,1006.85
2018-09-17T12:31:44.808Z,1006.86
2018-09-17T12:32:44.778Z,1006.84
2018-09-17T12:33:44.851Z,1006.81
2018-09-17T12:34:44.761Z,1006.79
2018-09-17T12:35:44.749Z,1006.79
2018-09-17T12:36:44.835Z,1006.77
2018-09-17T12:37:44.731Z,1006.74
2018-09-17T12:38:44.722Z,1006.77
2018-09-17T12:39:44.703Z,1006.71
2018-09-17T12:40:44.693Z,1006.68
2018-09-17T12:41:44.692Z,1006.65
2018-09-17T12:42:44.700Z,1006.63
2018-09-17T12:43:44.845Z,1006.65
2018-09-17T12:44:44.660Z,1006.66
2018-09-17T12:45:44.694Z,1006.63
2018-09-17T12:46:44.637Z,1006.60
2018-09-17T12:47:44.660Z,1006.56
2018-09-17T12:48:44.613Z,1006.58
2018-09-17T12:49:44.724Z,1006.50
2018-09-17T12:50:44.592Z,1006.50
2018-09-17T12:51:44.592Z,1006.48
2018-09-17T12:52:44.573Z,1006.47
2018-09-17T12:53:44.604Z,1006.45
2018-09-17T12:54:44.559Z,1006.47
2018-09-17T12:55:44.657Z,1006.47
2018-09-17T12:56:44.538Z,1006.41
2018-09-17T12:57:44.530Z,1006.43
2018-09-17T12:58:44.537Z,1006.38
2018-09-17T12:59:44.540Z,1006.38
2018-09-17T13:00:44.495Z,1006.44
2018-09-17T13:01:44.663Z,1006.38
2018-09-17T13:02:44.480Z,1006.38
2018-09-17T13:03:44.469Z,1006.36
2018-09-17T13:04:44.462Z,1006.32
2018-09-17T13:05:44.475Z,1006.34
2018-09-17T13:06:44.444Z,1006.32
2018-09-17T13:07:44.451Z,1006.27
2018-09-17T13:08:44.418Z,1006.29
2018-09-17T13:09:44.414Z,1006.30
2018-09-17T13:10:44.437Z,1006.33
2018-09-17T13:11:44.385Z,1006.35
2018-09-17T13:12:44.377Z,1006.29
2018-09-17T13:13:44.375Z,1006.29
2018-09-17T13:14:44.375Z,1006.29
2018-09-17T13:15:44.348Z,1006.29
2018-09-17T13:16:44.367Z,1006.29
2018-09-17T13:17:44.337Z,1006.26
2018-09-17T13:18:44.324Z,1006.36
2018-09-17T13:19:44.304Z,1006.34
2018-09-17T13:20:44.293Z,1006.41
2018-09-17T13:21:44.293Z,1006.34
2018-09-17T13:22:44.301Z,1006.33
2018-09-17T13:23:44.268Z,1006.32
2018-09-17T13:24:44.269Z,1006.29
2018-09-17T13:25:44.254Z,1006.28
2018-09-17T13:26:44.250Z,1006.27
2018-09-17T13:27:44.253Z,1006.25
2018-09-17T13:28:44.223Z,1006.25
2018-09-17T13:29:44.214Z,1006.23
2018-09-17T13:30:44.225Z,1006.23
2018-09-17T13:31:44.184Z,1006.25
2018-09-17T13:32:44.180Z,1006.24
2018-09-17T13:33:44.198Z,1006.23
2018-09-17T13:34:44.159Z,1006.20
2018-09-17T13:35:44.151Z,1006.17
2018-09-17T13:36:44.149Z,1006.14
2018-09-17T13:37:44.130Z,1006.16
2018-09-17T13:38:44.147Z,1006.07
2018-09-17T13:39:44.114Z,1006.04
2018-09-17T13:40:44.097Z,1006.04
2018-09-17T13:41:44.090Z,1006.05
2018-09-17T13:42:44.094Z,1006.05
2018-09-17T13:43:44.064Z,1006.03
2018-09-17T13:44:44.198Z,1006.03
2018-09-17T13:45:44.053Z,1005.98
2018-09-17T13:46:44.046Z,1005.95
2018-09-17T13:47:44.029Z,1005.92
2018-09-17T13:48:44.013Z,1005.90
2018-09-17T13:49:44.008Z,1005.86
2018-09-17T13:50:44.038Z,1005.85
2018-09-17T13:51:44.001Z,1005.83
2018-09-17T13:52:43.992Z,1005.84
2018-09-17T13:53:43.970Z,1005.85
2018-09-17T13:54:43.955Z,1005.84
2018-09-17T13:55:43.942Z,1005.84
2018-09-17T13:56:43.949Z,1005.84
2018-09-17T13:57:43.927Z,1005.86
2018-09-17T13:58:43.906Z,1005.82
2018-09-17T13:59:43.904Z,1005.89
2018-09-17T14:00:43.896Z,1005.85
2018-09-17T14:01:43.952Z,1005.85
2018-09-17T14:02:43.877Z,1005.82
2018-09-17T14:03:43.867Z,1005.86
2018-09-17T14:04:43.844Z,1005.80
2018-09-17T14:05:43.840Z,1005.79
2018-09-17T14:06:43.850Z,1005.78
2018-09-17T14:07:43.826Z,1005.75
2018-09-17T14:08:43.805Z,1005.73
2018-09-17T14:09:43.804Z,1005.73
2018-09-17T14:10:43.788Z,1005.70
2018-09-17T14:11:43.796Z,1005.72
2018-09-17T14:12:43.767Z,1005.70
2018-09-17T14:13:43.755Z,1005.72
2018-09-17T14:14:43.757Z,1005.66
2018-09-17T14:15:43.733Z,1005.68
2018-09-17T14:16:43.746Z,1005.66
2018-09-17T14:17:43.765Z,1005.67
2018-09-17T14:18:43.697Z,1005.68
2018-09-17T14:19:43.695Z,1005.68
2018-09-17T14:20:43.677Z,1005.63
2018-09-17T14:21:43.681Z,1005.63
2018-09-17T14:22:43.663Z,1005.61
2018-09-17T14:23:43.668Z,1005.61
2018-09-17T14:24:43.640Z,1005.61
2018-09-17T14:25:43.637Z,1005.61
2018-09-17T14:26:43.617Z,1005.62
2018-09-17T14:27:43.640Z,1005.60
2018-09-17T14:28:43.648Z,1005.58
2018-09-17T14:29:43.583Z,1005.58
2018-09-17T14:30:43.569Z,1005.54
2018-09-17T14:31:43.570Z,1005.52
2018-09-17T14:32:43.619Z,1005.45
2018-09-17T14:33:43.570Z,1005.45
2018-09-17T14:34:43.559Z,1005.47
2018-09-17T14:35:43.524Z,1005.51
2018-09-17T14:36:43.507Z,1005.47
2018-09-17T14:37:43.509Z,1005.48
2018-09-17T14:38:43.523Z,1005.42
2018-09-17T14:39:43.478Z,1005.43
2018-09-17T14:40:43.473Z,1005.37
2018-09-17T14:41:43.477Z,1005.34
2018-09-17T14:42:43.446Z,1005.37
2018-09-17T14:43:43.491Z,1005.47
2018-09-17T14:44:43.446Z,1005.34
2018-09-17T14:45:43.420Z,1005.31
2018-09-17T14:46:43.409Z,1005.30
2018-09-17T14:47:43.406Z,1005.24
2018-09-17T14:48:43.382Z,1005.23
2018-09-17T14:49:43.408Z,1005.15
2018-09-17T14:50:43.362Z,1005.10
2018-09-17T14:51:43.354Z,1005.07
2018-09-17T14:52:43.338Z,1005.05
2018-09-17T14:53:43.332Z,1005.05
2018-09-17T14:54:43.416Z,1005.01
2018-09-17T14:55:43.339Z,1004.99
2018-09-17T14:56:43.326Z,1004.93
2018-09-17T14:57:43.284Z,1004.97
2018-09-17T14:58:43.274Z,1004.98
2018-09-17T14:59:43.261Z,1004.96
2018-09-17T15:00:43.281Z,1004.92
2018-09-17T15:01:43.335Z,1004.89